Time;durP1;ratioP1;P1;durP2;ratioP2;P2;SDS_P1;SDS_P2;PMS_P1;PMS_P2;Temp;Humidity;BMP_temperature;BMP_pressure;BME280_temperature;BME280_humidity;BME280_pressure;Samples;Min_cycle;Max_cycle;Signal;HPM_P1;HPM_P2
2021/11/24 00:01:20;;;;;;;8.30;3.93;;;1.60;99.90;;;;;;5091976;28;20016;-74
2021/11/24 00:03:46;;;;;;;7.23;4.03;;;1.60;99.90;;;;;;5092935;28;20046;-74
2021/11/24 00:06:11;;;;;;;7.83;4.07;;;1.70;99.90;;;;;;5091264;28;20074;-73
2021/11/24 00:08:37;;;;;;;8.00;4.07;;;1.70;99.90;;;;;;5091820;28;20047;-73
2021/11/24 00:11:03;;;;;;;9.13;4.27;;;1.70;99.90;;;;;;5074590;28;20031;-73
2021/11/24 00:13:28;;;;;;;9.43;3.90;;;1.70;99.90;;;;;;5092468;28;20360;-74
2021/11/24 00:15:54;;;;;;;9.40;3.50;;;1.70;99.90;;;;;;5092762;28;20027;-74
2021/11/24 00:18:20;;;;;;;6.93;3.60;;;1.60;99.90;;;;;;5072348;28;20032;-73
2021/11/24 00:20:45;;;;;;;9.30;3.90;;;1.60;99.90;;;;;;5093278;28;20027;-73
2021/11/24 00:23:11;;;;;;;11.30;3.93;;;1.60;99.90;;;;;;5075191;28;20024;-73
2021/11/24 00:25:37;;;;;;;7.27;3.83;;;1.60;99.90;;;;;;5074551;28;20057;-73
2021/11/24 00:28:03;;;;;;;8.73;4.23;;;1.60;99.90;;;;;;5093013;28;20028;-72
2021/11/24 00:30:28;;;;;;;9.50;3.93;;;1.60;99.90;;;;;;5074186;28;20062;-73
2021/11/24 00:32:55;;;;;;;7.43;3.50;;;1.60;99.90;;;;;;5074674;28;20055;-72
2021/11/24 00:35:21;;;;;;;8.53;3.20;;;1.50;99.90;;;;;;5074543;28;20035;-73
2021/11/24 00:37:47;;;;;;;7.50;4.37;;;1.50;99.90;;;;;;5074757;28;20024;-73
2021/11/24 00:40:12;;;;;;;6.50;3.70;;;1.50;99.90;;;;;;5092891;28;20016;-73
2021/11/24 00:42:38;;;;;;;11.90;4.33;;;1.40;99.90;;;;;;5091494;28;20102;-73
2021/11/24 00:45:05;;;;;;;6.70;3.77;;;1.40;99.90;;;;;;5074437;28;20465;-72
2021/11/24 00:47:30;;;;;;;8.43;4.17;;;1.40;99.90;;;;;;5091869;28;20028;-72
2021/11/24 00:49:56;;;;;;;6.83;4.37;;;1.40;99.90;;;;;;5074654;28;20036;-72
2021/11/24 00:52:22;;;;;;;7.53;4.03;;;1.30;99.90;;;;;;5074039;28;20082;-73
2021/11/24 00:54:48;;;;;;;7.77;4.10;;;1.30;99.90;;;;;;5067677;28;20021;-73
2021/11/24 00:57:13;;;;;;;6.97;3.87;;;1.40;99.90;;;;;;5072613;28;20052;-72
2021/11/24 00:59:39;;;;;;;8.50;4.00;;;1.40;99.90;;;;;;5053828;28;20049;-74
2021/11/24 01:02:05;;;;;;;11.37;4.60;;;1.30;99.90;;;;;;5054632;28;20530;-73
2021/11/24 01:04:31;;;;;;;8.27;4.03;;;1.30;99.90;;;;;;5054270;28;20114;-74
2021/11/24 01:06:57;;;;;;;7.17;3.90;;;1.30;99.90;;;;;;5072481;28;20469;-74
2021/11/24 01:09:23;;;;;;;7.37;4.23;;;1.30;99.90;;;;;;5053798;28;20077;-74
2021/11/24 01:11:49;;;;;;;9.90;4.33;;;1.30;99.90;;;;;;5054719;28;20052;-74
2021/11/24 01:14:14;;;;;;;8.20;3.90;;;1.30;99.90;;;;;;5054678;28;20458;-73
2021/11/24 01:16:42;;;;;;;7.13;3.73;;;1.30;99.90;;;;;;5053786;28;20040;-74
2021/11/24 01:19:08;;;;;;;11.33;5.30;;;1.30;99.90;;;;;;5072569;28;20021;-73
2021/11/24 01:21:33;;;;;;;6.27;3.90;;;1.30;99.90;;;;;;5073312;28;20029;-74
2021/11/24 01:23:59;;;;;;;7.60;4.20;;;1.30;99.90;;;;;;5076369;28;20095;-74
2021/11/24 01:26:25;;;;;;;8.03;4.03;;;1.30;99.90;;;;;;5076012;28;20078;-74
2021/11/24 01:28:50;;;;;;;9.00;4.30;;;1.30;99.90;;;;;;5075701;28;20042;-74
2021/11/24 01:31:16;;;;;;;7.83;4.47;;;1.30;99.90;;;;;;5076114;28;20040;-74
2021/11/24 01:33:42;;;;;;;9.03;4.33;;;1.20;99.90;;;;;;5057662;28;20035;-74
2021/11/24 01:36:08;;;;;;;7.70;4.20;;;1.20;99.90;;;;;;5058268;28;20041;-74
2021/11/24 01:38:33;;;;;;;13.03;4.63;;;1.20;99.90;;;;;;5057879;28;20033;-74
2021/11/24 01:40:59;;;;;;;8.53;4.77;;;1.20;99.90;;;;;;5057890;28;20028;-73
2021/11/24 01:43:25;;;;;;;7.73;4.10;;;1.20;99.90;;;;;;5057895;28;20037;-74
2021/11/24 01:45:50;;;;;;;7.13;4.03;;;1.20;99.90;;;;;;5076119;28;20024;-74
2021/11/24 01:48:16;;;;;;;8.70;4.83;;;1.20;99.90;;;;;;5058077;28;20576;-74
2021/11/24 01:50:42;;;;;;;8.97;4.50;;;1.10;99.90;;;;;;5057554;28;20032;-74
2021/11/24 01:53:07;;;;;;;9.00;4.57;;;1.10;99.90;;;;;;5075685;28;20381;-74
2021/11/24 01:55:33;;;;;;;10.30;5.00;;;1.10;99.90;;;;;;5070611;28;20035;-73
2021/11/24 01:58:00;;;;;;;10.60;4.90;;;1.10;99.90;;;;;;5094792;28;20035;-73
2021/11/24 02:00:30;;;;;;;11.17;4.53;;;1.00;99.90;;;;;;5095131;28;20097;-73
2021/11/24 02:02:57;;;;;;;6.70;4.10;;;1.00;99.90;;;;;;5096041;28;20109;-73
2021/11/24 02:05:23;;;;;;;8.03;4.67;;;1.00;99.90;;;;;;5076897;28;20459;-74
2021/11/24 02:07:49;;;;;;;8.97;5.03;;;1.00;99.90;;;;;;5095807;28;20106;-72
2021/11/24 02:10:15;;;;;;;9.63;4.70;;;1.00;99.90;;;;;;5095694;28;20038;-72
2021/11/24 02:12:42;;;;;;;10.03;4.77;;;1.00;99.90;;;;;;5094674;28;20389;-72
2021/11/24 02:15:09;;;;;;;7.70;4.60;;;1.00;99.90;;;;;;5095806;28;20532;-72
2021/11/24 02:17:35;;;;;;;15.17;4.50;;;1.00;99.90;;;;;;5076608;28;20503;-72
2021/11/24 02:20:01;;;;;;;8.97;4.80;;;1.10;99.90;;;;;;5077185;28;20054;-72
2021/11/24 02:22:26;;;;;;;8.03;4.77;;;1.10;99.90;;;;;;5076934;28;20500;-73
2021/11/24 02:24:52;;;;;;;11.30;4.60;;;1.00;99.90;;;;;;5077387;28;20040;-72
2021/11/24 02:27:17;;;;;;;7.50;4.33;;;1.00;99.90;;;;;;5077294;28;20028;-73
2021/11/24 02:29:44;;;;;;;8.93;5.10;;;1.00;99.90;;;;;;5076809;28;20135;-73
2021/11/24 02:32:11;;;;;;;11.57;5.33;;;0.90;99.90;;;;;;5094702;28;20031;-73
2021/11/24 02:34:38;;;;;;;8.50;4.63;;;0.90;99.90;;;;;;5076768;28;20052;-73
2021/11/24 02:37:04;;;;;;;10.40;4.73;;;0.90;99.90;;;;;;5077349;28;20059;-73
2021/11/24 02:39:30;;;;;;;10.53;4.40;;;0.90;99.90;;;;;;5094719;28;20500;-73
2021/11/24 02:41:56;;;;;;;11.13;5.17;;;0.90;99.90;;;;;;5077310;28;20042;-73
2021/11/24 02:44:25;;;;;;;8.60;4.40;;;0.90;99.90;;;;;;5094909;28;20028;-73
2021/11/24 02:47:15;;;;;;;9.87;4.97;;;0.90;99.90;;;;;;5077169;28;20062;-73
2021/11/24 02:49:44;;;;;;;9.90;5.17;;;0.90;99.90;;;;;;5075668;28;20474;-73
2021/11/24 02:52:11;;;;;;;11.77;5.03;;;1.00;99.90;;;;;;5076879;28;20035;-73
2021/11/24 02:54:37;;;;;;;14.07;5.70;;;1.00;99.90;;;;;;5094758;28;20465;-73
2021/11/24 02:57:05;;;;;;;8.87;4.87;;;1.00;99.90;;;;;;5076794;28;20020;-73
2021/11/24 02:59:32;;;;;;;9.03;5.53;;;1.00;99.90;;;;;;5094606;28;20500;-73
2021/11/24 03:01:57;;;;;;;10.67;5.60;;;1.10;99.90;;;;;;5076416;28;20036;-73
2021/11/24 03:04:28;;;;;;;12.03;5.57;;;1.10;99.90;;;;;;5076653;28;20032;-73
2021/11/24 03:06:56;;;;;;;12.50;5.87;;;1.00;99.90;;;;;;5076676;28;20499;-73
2021/11/24 03:09:21;;;;;;;10.27;5.97;;;1.00;99.90;;;;;;5076711;28;20032;-74
2021/11/24 03:11:47;;;;;;;9.63;5.70;;;1.10;99.90;;;;;;5094118;28;20503;-73
2021/11/24 03:14:12;;;;;;;8.70;5.27;;;1.10;99.90;;;;;;5076484;28;20024;-73
2021/11/24 03:16:38;;;;;;;10.53;5.20;;;1.00;99.90;;;;;;5075786;28;20019;-73
2021/11/24 03:19:04;;;;;;;10.97;5.90;;;1.00;99.90;;;;;;5094461;28;20093;-73
2021/11/24 03:21:29;;;;;;;11.57;5.53;;;1.10;99.90;;;;;;5093692;28;20362;-74
2021/11/24 03:23:55;;;;;;;11.77;5.50;;;1.00;99.90;;;;;;5076306;28;20024;-73
2021/11/24 03:26:20;;;;;;;10.17;5.03;;;1.00;99.90;;;;;;5075922;28;20063;-72
2021/11/24 03:28:46;;;;;;;12.83;5.57;;;1.00;99.90;;;;;;5075571;28;20028;-74
2021/11/24 03:31:12;;;;;;;11.30;5.50;;;1.00;99.90;;;;;;5088939;28;20040;-74
2021/11/24 03:33:38;;;;;;;10.53;5.70;;;0.90;99.90;;;;;;5091982;28;20028;-73
2021/11/24 03:36:04;;;;;;;12.80;5.40;;;1.00;99.90;;;;;;5094225;28;20036;-73
2021/11/24 03:38:29;;;;;;;9.63;5.07;;;1.00;99.90;;;;;;5075393;28;20028;-74
2021/11/24 03:40:55;;;;;;;12.63;5.77;;;0.90;99.90;;;;;;5090783;28;20031;-74
2021/11/24 03:43:21;;;;;;;8.70;5.53;;;0.90;99.90;;;;;;5075451;28;20090;-73
2021/11/24 03:45:46;;;;;;;9.40;5.60;;;0.90;99.90;;;;;;5091841;28;20031;-73
2021/11/24 03:48:12;;;;;;;11.33;6.23;;;0.90;99.90;;;;;;5093503;28;20032;-74
2021/11/24 03:50:38;;;;;;;10.17;6.00;;;0.80;99.90;;;;;;5075020;28;20444;-73
2021/11/24 03:53:04;;;;;;;8.90;5.43;;;0.80;99.90;;;;;;5093397;28;20020;-73
2021/11/24 03:55:29;;;;;;;11.07;6.00;;;0.80;99.90;;;;;;5093160;28;20039;-74
2021/11/24 03:57:55;;;;;;;11.17;5.90;;;0.80;99.90;;;;;;5074815;28;20122;-73
2021/11/24 04:00:25;;;;;;;9.03;5.43;;;0.80;99.90;;;;;;5093871;28;20059;-73
2021/11/24 04:02:51;;;;;;;9.73;5.40;;;0.80;99.90;;;;;;5092991;28;20028;-73
2021/11/24 04:05:17;;;;;;;10.83;5.37;;;0.80;99.90;;;;;;5093165;28;20372;-73
2021/11/24 04:07:44;;;;;;;10.70;5.37;;;0.80;99.90;;;;;;5092918;28;20031;-73
2021/11/24 04:10:11;;;;;;;12.10;5.43;;;0.80;99.90;;;;;;5093479;28;20032;-73
2021/11/24 04:12:38;;;;;;;12.47;5.77;;;0.70;99.90;;;;;;5092816;28;20031;-73
2021/11/24 04:15:05;;;;;;;10.87;5.40;;;0.70;99.90;;;;;;5093437;28;20024;-73
2021/11/24 04:17:31;;;;;;;10.90;6.00;;;0.70;99.90;;;;;;5074521;28;20035;-73
2021/11/24 04:19:57;;;;;;;11.73;6.00;;;0.80;99.90;;;;;;5074631;28;20023;-74
2021/11/24 04:22:23;;;;;;;12.07;5.50;;;0.80;99.90;;;;;;5075171;28;20031;-73
2021/11/24 04:24:49;;;;;;;12.73;6.07;;;0.80;99.90;;;;;;5074556;28;20020;-73
2021/11/24 04:27:14;;;;;;;13.10;6.03;;;0.80;99.90;;;;;;5092671;28;20046;-73
2021/11/24 04:29:41;;;;;;;12.73;6.53;;;0.80;99.90;;;;;;5090512;28;20110;-73
2021/11/24 04:32:07;;;;;;;14.57;6.70;;;0.70;99.90;;;;;;5054608;28;20021;-73
2021/11/24 04:34:33;;;;;;;13.37;6.17;;;0.60;99.90;;;;;;5071842;28;20029;-74
2021/11/24 04:36:59;;;;;;;10.13;5.70;;;0.60;99.90;;;;;;5054588;28;20073;-73
2021/11/24 04:39:25;;;;;;;13.90;5.83;;;0.70;99.90;;;;;;5054852;28;20016;-73
2021/11/24 04:41:50;;;;;;;10.53;5.97;;;0.70;99.90;;;;;;5053864;28;20448;-73
2021/11/24 04:44:16;;;;;;;10.07;5.77;;;0.70;99.90;;;;;;5072638;28;20021;-73
2021/11/24 04:46:41;;;;;;;11.43;6.23;;;0.60;99.90;;;;;;5072100;28;20101;-73
2021/11/24 04:49:07;;;;;;;11.73;5.83;;;0.60;99.90;;;;;;5054102;28;20029;-73
2021/11/24 04:51:33;;;;;;;10.87;5.97;;;0.60;99.90;;;;;;5071687;28;20033;-73
2021/11/24 04:53:58;;;;;;;11.50;6.30;;;0.50;99.90;;;;;;5072661;28;20051;-73
2021/11/24 04:56:24;;;;;;;13.70;6.50;;;0.50;99.90;;;;;;5054144;28;20024;-73
2021/11/24 04:58:58;;;;;;;10.03;6.00;;;0.50;99.90;;;;;;5071656;28;20071;-73
2021/11/24 05:01:24;;;;;;;10.57;6.17;;;0.50;99.90;;;;;;5054492;28;20031;-73
2021/11/24 05:03:50;;;;;;;11.73;6.43;;;0.50;99.90;;;;;;5071483;28;20078;-75
2021/11/24 05:06:18;;;;;;;11.50;6.37;;;0.50;99.90;;;;;;5072600;28;20056;-74
2021/11/24 05:08:44;;;;;;;11.20;5.70;;;0.60;99.90;;;;;;5053472;28;20032;-73
2021/11/24 05:11:11;;;;;;;15.93;5.87;;;0.60;99.90;;;;;;5072133;28;20028;-74
2021/11/24 05:13:38;;;;;;;10.73;6.63;;;0.60;99.90;;;;;;5053821;28;20074;-74
2021/11/24 05:16:05;;;;;;;11.50;6.30;;;0.60;99.90;;;;;;5054378;28;20074;-73
2021/11/24 05:18:43;;;;;;;12.33;6.57;;;0.60;99.90;;;;;;5054034;28;20025;-73
2021/11/24 05:21:22;;;;;;;14.93;6.43;;;0.60;99.90;;;;;;5054290;28;20082;-73
2021/11/24 05:23:48;;;;;;;13.63;6.57;;;0.60;99.90;;;;;;5071954;28;20017;-74
2021/11/24 05:26:14;;;;;;;12.10;6.77;;;0.60;99.90;;;;;;5071878;28;20021;-74
2021/11/24 05:28:39;;;;;;;10.67;6.33;;;0.50;99.90;;;;;;5071472;28;20420;-73
2021/11/24 05:31:05;;;;;;;15.63;6.67;;;0.50;99.90;;;;;;5067596;28;20024;-73
2021/11/24 05:33:31;;;;;;;11.97;6.77;;;0.60;99.90;;;;;;5073444;28;20027;-73
2021/11/24 05:35:57;;;;;;;14.10;7.33;;;0.60;99.90;;;;;;5073744;28;20034;-73
2021/11/24 05:38:23;;;;;;;10.77;6.40;;;0.60;99.90;;;;;;5074456;28;20028;-73
2021/11/24 05:40:48;;;;;;;11.47;6.47;;;0.60;99.90;;;;;;5091406;28;20020;-73
2021/11/24 05:43:19;;;;;;;11.67;6.50;;;0.60;99.90;;;;;;5092381;28;20059;-73
2021/11/24 05:46:08;;;;;;;14.30;6.53;;;0.60;99.90;;;;;;5091780;28;20476;-73
2021/11/24 05:48:30;;;;;;;14.40;6.73;;;0.60;99.90;;;;;;5091563;28;20108;-73
2021/11/24 05:50:56;;;;;;;11.20;6.03;;;0.50;99.90;;;;;;5073747;28;20070;-73
2021/11/24 05:53:21;;;;;;;10.10;5.70;;;0.50;99.90;;;;;;5092033;28;20031;-73
2021/11/24 05:55:48;;;;;;;12.03;7.00;;;0.50;99.90;;;;;;5091315;28;20358;-73
2021/11/24 05:58:18;;;;;;;14.37;6.93;;;0.50;99.90;;;;;;5092224;28;20066;-73
2021/11/24 06:00:44;;;;;;;13.37;6.57;;;0.50;99.90;;;;;;5073728;28;20030;-73
2021/11/24 06:03:10;;;;;;;12.23;6.97;;;0.40;99.90;;;;;;5073291;28;20560;-75
2021/11/24 06:05:36;;;;;;;14.10;6.60;;;0.40;99.90;;;;;;5073817;28;20060;-76
2021/11/24 06:08:02;;;;;;;11.70;6.50;;;0.40;99.90;;;;;;5076061;28;20038;-74
2021/11/24 06:10:28;;;;;;;11.63;6.40;;;0.40;99.90;;;;;;5077276;28;20028;-74
2021/11/24 06:12:54;;;;;;;15.20;6.07;;;0.40;99.90;;;;;;5077172;28;20031;-75
2021/11/24 06:15:20;;;;;;;16.20;6.70;;;0.40;99.90;;;;;;5095485;28;20465;-74
2021/11/24 06:17:47;;;;;;;14.60;6.93;;;0.40;99.90;;;;;;5076715;28;20024;-74
2021/11/24 06:20:15;;;;;;;16.27;6.87;;;0.50;99.90;;;;;;5077473;28;20067;-74
2021/11/24 06:22:42;;;;;;;11.03;6.33;;;0.40;99.90;;;;;;5076998;28;20424;-74
2021/11/24 06:25:09;;;;;;;14.47;6.53;;;0.40;99.90;;;;;;5077197;28;20020;-74
2021/11/24 06:27:35;;;;;;;13.23;6.60;;;0.40;99.90;;;;;;5095326;28;20106;-74
2021/11/24 06:30:03;;;;;;;12.43;6.40;;;0.40;99.90;;;;;;5089831;28;20027;-74
2021/11/24 06:32:29;;;;;;;11.60;6.33;;;0.40;99.90;;;;;;5073918;28;20036;-74
2021/11/24 06:34:54;;;;;;;10.57;5.70;;;0.40;99.90;;;;;;5056508;28;20021;-74
2021/11/24 06:37:20;;;;;;;11.17;5.60;;;0.40;99.90;;;;;;5074948;28;20032;-74
2021/11/24 06:39:46;;;;;;;12.40;6.13;;;0.40;99.90;;;;;;5073783;28;20020;-74
2021/11/24 06:42:11;;;;;;;11.53;6.23;;;0.40;99.90;;;;;;5057039;28;20048;-74
2021/11/24 06:44:37;;;;;;;10.20;5.73;;;0.40;99.90;;;;;;5056776;28;20423;-76
2021/11/24 06:47:03;;;;;;;13.63;6.17;;;0.30;99.90;;;;;;5074410;28;20021;-74
2021/11/24 06:49:29;;;;;;;11.30;5.83;;;0.30;99.90;;;;;;5056803;28;20519;-75
2021/11/24 06:51:55;;;;;;;15.70;6.93;;;0.30;99.90;;;;;;5056210;28;20024;-75
2021/11/24 06:54:20;;;;;;;13.70;7.00;;;0.30;99.90;;;;;;5074111;28;20029;-74
2021/11/24 06:56:49;;;;;;;13.83;6.40;;;0.20;99.90;;;;;;5056397;28;20021;-73
2021/11/24 06:59:15;;;;;;;10.67;6.23;;;0.20;99.90;;;;;;5074828;28;20043;-74
2021/11/24 07:01:43;;;;;;;14.17;6.10;;;0.20;99.90;;;;;;5055580;28;20044;-75
2021/11/24 07:04:09;;;;;;;14.00;6.57;;;0.30;99.90;;;;;;5074543;28;20462;-74
2021/11/24 07:06:35;;;;;;;13.77;6.37;;;0.30;99.90;;;;;;5074212;28;20028;-74
2021/11/24 07:09:01;;;;;;;13.60;6.97;;;0.40;99.90;;;;;;5055360;28;20657;-74
2021/11/24 07:11:32;;;;;;;13.50;7.00;;;0.50;99.90;;;;;;5056420;28;20050;-73
2021/11/24 07:13:59;;;;;;;19.20;7.57;;;0.50;99.90;;;;;;5055811;28;20047;-74
2021/11/24 07:16:25;;;;;;;15.40;6.83;;;0.60;99.90;;;;;;5073517;28;20091;-73
2021/11/24 07:18:50;;;;;;;16.70;8.10;;;0.60;99.90;;;;;;5073698;28;20064;-74
2021/11/24 07:21:16;;;;;;;16.67;6.80;;;0.70;99.90;;;;;;5056517;28;20437;-74
2021/11/24 07:23:42;;;;;;;20.33;7.40;;;0.70;99.90;;;;;;5073134;28;20047;-75
2021/11/24 07:26:08;;;;;;;17.00;7.77;;;0.70;99.90;;;;;;5056242;28;20406;-74
2021/11/24 07:28:33;;;;;;;15.33;7.43;;;0.80;99.90;;;;;;5056229;28;20085;-74
2021/11/24 07:30:59;;;;;;;15.70;7.43;;;0.80;99.90;;;;;;5085892;28;20027;-74
2021/11/24 07:33:25;;;;;;;17.10;7.70;;;0.90;99.90;;;;;;5075937;28;20028;-74
2021/11/24 07:35:51;;;;;;;15.90;7.20;;;0.90;99.90;;;;;;5075429;28;20020;-74
2021/11/24 07:38:17;;;;;;;16.50;7.57;;;1.00;99.90;;;;;;5093654;28;20020;-74
2021/11/24 07:40:42;;;;;;;17.47;7.97;;;1.10;99.90;;;;;;5075546;28;20078;-74
2021/11/24 07:43:08;;;;;;;16.77;7.30;;;1.00;99.90;;;;;;5093858;28;20439;-74
2021/11/24 07:45:34;;;;;;;15.60;7.43;;;1.00;99.90;;;;;;5075523;28;20016;-73
2021/11/24 07:48:00;;;;;;;18.97;7.47;;;1.00;99.90;;;;;;5075032;28;20431;-74
2021/11/24 07:50:26;;;;;;;14.77;6.70;;;1.00;99.90;;;;;;5075403;28;20069;-74
2021/11/24 07:52:52;;;;;;;15.43;6.47;;;1.10;99.90;;;;;;5074592;28;20020;-74
2021/11/24 07:55:18;;;;;;;17.37;7.80;;;1.10;99.90;;;;;;5093922;28;20020;-74
2021/11/24 07:57:44;;;;;;;15.30;7.53;;;1.10;99.90;;;;;;5092829;28;20028;-74
2021/11/24 08:00:11;;;;;;;16.37;7.20;;;1.20;99.90;;;;;;5092609;28;20035;-73
2021/11/24 08:02:36;;;;;;;14.33;6.70;;;1.20;99.90;;;;;;5074884;28;20024;-74
2021/11/24 08:05:04;;;;;;;14.10;6.93;;;1.20;99.90;;;;;;5091943;28;20122;-74
2021/11/24 08:07:32;;;;;;;12.73;6.63;;;1.20;99.90;;;;;;5093024;28;20032;-74
2021/11/24 08:09:58;;;;;;;15.77;7.27;;;1.30;99.90;;;;;;5092784;28;20027;-73
2021/11/24 08:12:24;;;;;;;14.97;7.07;;;1.40;99.90;;;;;;5093387;28;20024;-73
2021/11/24 08:14:52;;;;;;;17.00;7.63;;;1.40;99.90;;;;;;5074268;28;20437;-74
2021/11/24 08:17:19;;;;;;;14.27;6.70;;;1.50;99.90;;;;;;5071935;28;20024;-73
2021/11/24 08:19:44;;;;;;;15.87;6.83;;;1.50;99.90;;;;;;5074667;28;20046;-74
2021/11/24 08:22:10;;;;;;;15.97;7.47;;;1.60;99.90;;;;;;5092235;28;20021;-74
2021/11/24 08:24:36;;;;;;;16.33;7.23;;;1.60;99.90;;;;;;5075164;28;20432;-74
2021/11/24 08:27:02;;;;;;;15.93;7.37;;;1.50;99.90;;;;;;5067679;28;20470;-74
2021/11/24 08:29:29;;;;;;;13.20;6.70;;;1.60;99.90;;;;;;5088998;28;20354;-74
2021/11/24 08:31:55;;;;;;;14.93;6.93;;;1.60;99.90;;;;;;5088255;28;20032;-74
2021/11/24 08:34:21;;;;;;;13.23;7.00;;;1.70;99.90;;;;;;5075585;28;20083;-74
2021/11/24 08:36:49;;;;;;;14.60;6.93;;;1.70;99.90;;;;;;5072422;28;20030;-75
2021/11/24 08:39:15;;;;;;;19.77;7.27;;;1.70;99.90;;;;;;5090372;28;20115;-74
2021/11/24 08:41:41;;;;;;;14.87;6.80;;;1.70;99.90;;;;;;5068374;28;20021;-74
2021/11/24 08:44:07;;;;;;;17.27;6.67;;;1.80;99.90;;;;;;5089139;28;20025;-75
2021/11/24 08:46:32;;;;;;;16.57;6.50;;;1.80;99.90;;;;;;5071083;28;20036;-74
2021/11/24 08:48:58;;;;;;;15.47;7.23;;;1.90;99.90;;;;;;5070130;28;20032;-74
2021/11/24 08:51:24;;;;;;;13.23;6.47;;;2.00;99.90;;;;;;5070664;28;20039;-74
2021/11/24 08:53:49;;;;;;;13.30;5.73;;;2.10;99.90;;;;;;5069884;28;20416;-75
2021/11/24 08:56:15;;;;;;;15.90;6.53;;;2.20;99.90;;;;;;5071121;28;20035;-73
2021/11/24 08:58:41;;;;;;;11.63;5.63;;;2.30;99.90;;;;;;5070053;28;20055;-73
2021/11/24 09:01:07;;;;;;;14.43;6.20;;;2.30;99.90;;;;;;5069060;28;20036;-74
2021/11/24 09:03:33;;;;;;;15.03;5.67;;;2.40;99.90;;;;;;5068016;28;20032;-74
2021/11/24 09:05:59;;;;;;;13.40;5.90;;;2.50;99.90;;;;;;5069841;28;20035;-74
2021/11/24 09:08:25;;;;;;;13.60;6.33;;;2.50;99.90;;;;;;5069666;28;20419;-74
2021/11/24 09:10:51;;;;;;;12.33;5.63;;;2.50;99.90;;;;;;5070345;28;20461;-72
2021/11/24 09:13:17;;;;;;;12.33;6.60;;;2.60;99.90;;;;;;5084279;28;20028;-73
2021/11/24 09:15:43;;;;;;;14.27;6.10;;;2.60;99.90;;;;;;5070595;28;20093;-73
2021/11/24 09:18:09;;;;;;;14.10;5.93;;;2.70;99.90;;;;;;5088787;28;20024;-73
2021/11/24 09:20:35;;;;;;;13.10;6.17;;;2.80;99.90;;;;;;5088110;28;20024;-74
2021/11/24 09:23:04;;;;;;;12.07;5.53;;;2.80;99.90;;;;;;5069506;28;20461;-72
2021/11/24 09:28:16;;;;;;;13.60;6.37;;;2.90;99.90;;;;;;5088935;28;20089;-72
2021/11/24 09:30:42;;;;;;;15.30;5.90;;;3.00;99.90;;;;;;5069155;28;20115;-72
2021/11/24 09:33:09;;;;;;;14.00;6.23;;;3.00;99.90;;;;;;5070054;28;20020;-73
2021/11/24 09:35:35;;;;;;;13.13;6.10;;;3.10;99.90;;;;;;5071602;28;20028;-73
2021/11/24 09:38:01;;;;;;;13.17;6.20;;;3.10;99.90;;;;;;5088644;28;20085;-73
2021/11/24 09:40:28;;;;;;;12.37;6.33;;;3.20;99.90;;;;;;5089045;28;20031;-74
2021/11/24 09:43:00;;;;;;;10.87;5.33;;;3.20;99.90;;;;;;5089710;28;20077;-73
2021/11/24 09:45:27;;;;;;;11.17;5.87;;;3.20;99.90;;;;;;5076225;28;20050;-73
2021/11/24 09:47:57;;;;;;;11.10;5.80;;;3.20;99.90;;;;;;5076618;28;20477;-73
2021/11/24 09:50:25;;;;;;;11.60;5.90;;;3.30;99.90;;;;;;5094436;28;20090;-73
2021/11/24 09:52:54;;;;;;;12.50;5.83;;;3.30;99.90;;;;;;5092166;28;20028;-73
2021/11/24 09:55:23;;;;;;;12.43;5.83;;;3.40;99.90;;;;;;5076541;28;20020;-73
2021/11/24 09:57:48;;;;;;;14.00;6.83;;;3.40;99.90;;;;;;5075960;28;20036;-73
2021/11/24 10:00:15;;;;;;;12.67;6.50;;;3.40;99.90;;;;;;5094123;28;20024;-73
2021/11/24 10:02:42;;;;;;;13.50;6.53;;;3.50;99.90;;;;;;5093728;28;20027;-73
2021/11/24 10:05:09;;;;;;;11.50;6.33;;;3.50;99.90;;;;;;5076174;28;20043;-72
2021/11/24 10:07:34;;;;;;;11.83;6.07;;;3.50;99.90;;;;;;5075951;28;20799;-73
2021/11/24 10:10:00;;;;;;;16.43;5.90;;;3.60;99.90;;;;;;5094821;28;20027;-73
2021/11/24 10:12:26;;;;;;;12.93;6.13;;;3.50;99.90;;;;;;5074952;28;20103;-74
2021/11/24 10:14:52;;;;;;;10.37;5.77;;;3.60;99.90;;;;;;5094355;28;20035;-72
2021/11/24 10:17:24;;;;;;;12.93;6.00;;;3.60;99.90;;;;;;5076216;28;20429;-72
2021/11/24 10:20:08;;;;;;;11.70;5.90;;;3.70;99.90;;;;;;5075779;28;20115;-73
2021/11/24 10:22:38;;;;;;;11.47;5.80;;;3.70;99.90;;;;;;5092482;28;20043;-73
2021/11/24 10:25:10;;;;;;;13.03;6.67;;;3.70;99.90;;;;;;5075514;28;20055;-74
2021/11/24 10:27:44;;;;;;;10.75;5.93;;;3.80;99.90;;;;;;5075266;28;20042;-73
2021/11/24 10:30:20;;;;;;;14.33;6.97;;;3.80;99.90;;;;;;5072681;28;20028;-74
2021/11/24 10:32:46;;;;;;;14.10;6.20;;;3.80;99.60;;;;;;5067136;28;20107;-75
2021/11/24 10:35:12;;;;;;;11.30;6.13;;;3.80;99.80;;;;;;5060552;28;20032;-74
2021/11/24 10:37:39;;;;;;;12.07;6.00;;;3.80;99.80;;;;;;5077155;28;20028;-74
2021/11/24 10:40:08;;;;;;;13.03;6.43;;;3.90;99.80;;;;;;5076937;28;20461;-74
2021/11/24 10:42:37;;;;;;;14.67;7.60;;;3.90;99.70;;;;;;5093705;28;20028;-75
2021/11/24 10:45:08;;;;;;;10.73;6.40;;;4.00;99.90;;;;;;5075943;28;20029;-74
2021/11/24 10:47:34;;;;;;;10.80;5.80;;;4.00;99.40;;;;;;5076930;28;20393;-78
2021/11/24 10:50:03;;;;;;;11.43;6.03;;;4.00;99.40;;;;;;5076206;28;20035;-75
2021/11/24 10:52:34;;;;;;;12.13;6.37;;;4.00;99.10;;;;;;5095543;28;20078;-82
2021/11/24 10:55:13;;;;;;;12.20;6.18;;;4.00;98.90;;;;;;5077808;28;20393;-79
2021/11/24 10:57:41;;;;;;;12.17;6.40;;;4.00;99.00;;;;;;5096460;28;20028;-77
2021/11/24 11:00:09;;;;;;;12.07;6.33;;;4.10;99.20;;;;;;5054176;28;20048;-77
2021/11/24 11:02:46;;;;;;;11.50;6.57;;;4.00;99.20;;;;;;5054825;28;20037;-78
2021/11/24 11:05:16;;;;;;;12.80;6.30;;;4.00;99.00;;;;;;5053813;28;20035;-77
2021/11/24 11:07:54;;;;;;;10.83;5.23;;;4.10;99.10;;;;;;5047987;28;20483;-78
2021/11/24 11:10:42;;;;;;;11.03;5.93;;;4.10;99.00;;;;;;5052933;28;20033;-77
2021/11/24 11:13:16;;;;;;;12.60;5.97;;;4.10;98.90;;;;;;5045578;28;20128;-77
2021/11/24 11:15:51;;;;;;;9.90;6.20;;;4.10;99.00;;;;;;5045558;28;20017;-76
2021/11/24 11:18:24;;;;;;;14.53;6.10;;;4.20;99.10;;;;;;5041646;28;20037;-77
2021/11/24 11:21:02;;;;;;;11.63;5.83;;;4.20;99.00;;;;;;5036162;28;20079;-82
2021/11/24 11:23:31;;;;;;;11.47;6.00;;;4.20;99.00;;;;;;5052171;28;20466;-84
2021/11/24 11:26:01;;;;;;;11.20;6.00;;;4.30;99.00;;;;;;5043295;28;20067;-78
2021/11/24 11:28:30;;;;;;;12.17;5.43;;;4.20;98.70;;;;;;5052553;28;20137;-78
2021/11/24 11:30:57;;;;;;;12.07;6.07;;;4.20;98.90;;;;;;5052383;28;20478;-79
2021/11/24 11:33:27;;;;;;;13.00;6.33;;;4.30;99.10;;;;;;5052301;28;20512;-79
2021/11/24 11:35:53;;;;;;;11.10;6.10;;;4.40;98.80;;;;;;5049837;28;20196;-81
2021/11/24 11:38:20;;;;;;;10.43;6.00;;;4.40;98.70;;;;;;5051956;28;20128;-77
2021/11/24 11:40:48;;;;;;;12.57;6.37;;;4.40;98.50;;;;;;5050950;28;20025;-81
2021/11/24 11:43:15;;;;;;;16.27;7.30;;;4.40;98.60;;;;;;5051311;28;20025;-80
2021/11/24 11:45:40;;;;;;;11.50;6.30;;;4.50;98.50;;;;;;5047688;28;20020;-78
2021/11/24 11:48:08;;;;;;;13.67;6.80;;;4.50;98.30;;;;;;5042373;28;20067;-78
2021/11/24 11:50:50;;;;;;;13.73;7.13;;;4.70;98.20;;;;;;5052766;28;20117;-78
2021/11/24 11:53:27;;;;;;;12.20;6.15;;;4.80;97.50;;;;;;5036397;28;20053;-78
2021/11/24 11:56:12;;;;;;;14.03;7.27;;;4.90;97.80;;;;;;5045528;28;20029;-84
2021/11/24 11:59:22;;;;;;;14.20;6.77;;;5.10;97.10;;;;;;5054025;28;20044;-84
2021/11/24 12:01:49;;;;;;;13.10;6.50;;;5.30;97.00;;;;;;5026155;28;20749;-82
2021/11/24 12:04:19;;;;;;;16.70;7.70;;;5.50;96.60;;;;;;5068388;28;20085;-83
2021/11/24 12:07:01;;;;;;;14.90;7.20;;;5.60;96.10;;;;;;5091711;28;20012;-82
2021/11/24 12:09:28;;;;;;;;;;;5.80;95.60;;;;;;5075095;28;20063;-84
2021/11/24 12:12:10;;;;;;;11.53;6.23;;;5.90;94.80;;;;;;5073423;28;20651;-84
2021/11/24 12:14:59;;;;;;;11.32;6.35;;;6.20;94.80;;;;;;5074591;28;20026;-82
2021/11/24 12:17:37;;;;;;;11.43;6.10;;;6.40;94.10;;;;;;5082146;28;20020;-83
2021/11/24 12:20:15;;;;;;;14.37;6.60;;;6.40;94.00;;;;;;5074840;28;20028;-82
2021/11/24 12:22:51;;;;;;;13.10;6.63;;;6.60;94.10;;;;;;5076050;28;20104;-82
2021/11/24 12:25:26;;;;;;;11.67;6.23;;;6.50;93.90;;;;;;5074082;28;20079;-83
2021/11/24 12:30:52;;;;;;;10.27;6.00;;;6.50;94.00;;;;;;5091115;28;20035;-83
2021/11/24 12:33:26;;;;;;;12.27;6.50;;;6.50;93.80;;;;;;5067661;28;20436;-81
2021/11/24 12:36:08;;;;;;;10.93;5.70;;;6.50;94.00;;;;;;5071451;28;20074;-82
2021/11/24 12:38:54;;;;;;;11.38;6.18;;;6.50;93.70;;;;;;5072774;28;20031;-79
2021/11/24 12:41:28;;;;;;;12.50;5.83;;;6.50;93.40;;;;;;5082096;28;20027;-86
2021/11/24 12:43:57;;;;;;;11.90;6.37;;;6.60;93.60;;;;;;5072360;28;20020;-84
2021/11/24 12:46:28;;;;;;;11.20;5.97;;;6.50;93.60;;;;;;5072842;28;20028;-85
2021/11/24 12:49:00;;;;;;;10.77;6.00;;;6.60;93.70;;;;;;5089990;28;20032;-84
2021/11/24 12:51:30;;;;;;;10.98;6.03;;;6.60;93.20;;;;;;5072885;28;20020;-82
2021/11/24 12:54:11;;;;;;;12.23;5.00;;;6.80;93.20;;;;;;5071915;28;20131;-82
2021/11/24 12:56:52;;;;;;;11.17;6.23;;;6.80;93.10;;;;;;5072319;28;20032;-82
2021/11/24 12:59:23;;;;;;;11.13;5.73;;;6.90;92.90;;;;;;5080938;28;20048;-81